Time;durP1;ratioP1;P1;durP2;ratioP2;P2;SDS_P1;SDS_P2;PMS_P1;PMS_P2;Temp;Humidity;BMP_temperature;BMP_pressure;BME280_temperature;BME280_humidity;BME280_pressure;Samples;Min_cycle;Max_cycle;Signal;HPM_P1;HPM_P2
2022/07/30 00:00:34;;;;;;;17.63;16.73;;;22.00;26.20;;;;;;6218261;23;20217;-71
2022/07/30 00:03:00;;;;;;;17.33;16.53;;;22.00;26.40;;;;;;6218682;23;20521;-71
2022/07/30 00:05:25;;;;;;;17.50;16.70;;;22.00;26.90;;;;;;6218689;23;20198;-71
2022/07/30 00:07:51;;;;;;;16.80;16.10;;;22.00;27.70;;;;;;6218508;23;20179;-71
2022/07/30 00:10:17;;;;;;;17.20;16.27;;;22.00;28.70;;;;;;6218329;23;20151;-71
2022/07/30 00:12:43;;;;;;;18.27;17.10;;;21.60;31.10;;;;;;6218506;23;20158;-71
2022/07/30 00:15:09;;;;;;;19.23;18.33;;;21.20;33.20;;;;;;6218424;23;20371;-71
2022/07/30 00:17:35;;;;;;;19.20;17.57;;;21.10;33.70;;;;;;6245639;23;20152;-71
2022/07/30 00:20:00;;;;;;;19.10;18.30;;;20.90;33.90;;;;;;6218255;23;20920;-70
2022/07/30 00:22:26;;;;;;;18.07;17.27;;;20.80;33.20;;;;;;6218458;23;20175;-71
2022/07/30 00:24:52;;;;;;;19.60;18.70;;;21.00;33.40;;;;;;6219380;23;20479;-71
2022/07/30 00:27:18;;;;;;;20.10;19.10;;;21.10;33.10;;;;;;6245752;23;20163;-71
2022/07/30 00:29:43;;;;;;;19.20;18.30;;;20.90;33.00;;;;;;6220509;23;20155;-71
2022/07/30 00:32:09;;;;;;;17.93;17.20;;;20.80;33.00;;;;;;6220426;23;20159;-71
2022/07/30 00:34:35;;;;;;;17.97;17.23;;;20.70;32.20;;;;;;6220466;23;20660;-70
2022/07/30 00:37:00;;;;;;;18.00;17.30;;;20.60;32.10;;;;;;6220246;23;20155;-71
2022/07/30 00:39:28;;;;;;;18.73;17.93;;;20.60;32.60;;;;;;6220487;23;20159;-71
2022/07/30 00:41:57;;;;;;;17.97;17.27;;;20.70;31.40;;;;;;6220163;23;20184;-70
2022/07/30 00:44:23;;;;;;;18.37;17.57;;;20.80;30.70;;;;;;6220805;23;20420;-70
2022/07/30 00:46:48;;;;;;;18.97;18.17;;;20.70;31.70;;;;;;6220329;23;20822;-71
2022/07/30 00:49:14;;;;;;;19.30;18.30;;;21.10;31.30;;;;;;6247168;23;20420;-71
2022/07/30 00:51:40;;;;;;;19.23;18.30;;;21.30;31.00;;;;;;6219940;23;20480;-71
2022/07/30 00:54:06;;;;;;;19.23;18.30;;;21.30;31.40;;;;;;6220109;23;20156;-71
2022/07/30 00:56:32;;;;;;;19.77;18.90;;;20.90;33.80;;;;;;6220250;23;20581;-71
2022/07/30 00:58:57;;;;;;;19.93;19.13;;;20.90;34.00;;;;;;6220088;23;20581;-71
2022/07/30 01:01:23;;;;;;;19.23;18.10;;;21.20;33.20;;;;;;6220024;23;20170;-71
2022/07/30 01:03:49;;;;;;;19.83;18.93;;;21.40;32.90;;;;;;6220219;23;20160;-71
2022/07/30 01:06:15;;;;;;;18.57;17.80;;;21.60;31.80;;;;;;6220533;23;20155;-71
2022/07/30 01:08:42;;;;;;;19.07;18.17;;;21.60;32.90;;;;;;6220083;23;20175;-71
2022/07/30 01:11:09;;;;;;;18.20;17.50;;;21.70;32.20;;;;;;6219877;23;20156;-71
2022/07/30 01:13:35;;;;;;;19.37;18.43;;;21.70;32.40;;;;;;6220124;23;20393;-71
2022/07/30 01:16:00;;;;;;;18.60;17.70;;;21.70;32.00;;;;;;6220265;23;20370;-71
2022/07/30 01:19:47;;;;;;;18.67;17.57;;;21.80;31.50;;;;;;6220191;23;20187;-71
2022/07/30 01:21:22;;;;;;;18.30;17.47;;;21.90;31.60;;;;;;6246499;23;20160;-71
2022/07/30 01:23:52;;;;;;;17.80;17.00;;;21.90;31.80;;;;;;6220522;23;20378;-71
2022/07/30 01:26:21;;;;;;;19.70;18.83;;;21.90;30.50;;;;;;6220040;23;20384;-71
2022/07/30 01:28:51;;;;;;;19.10;18.00;;;22.00;31.10;;;;;;6219968;23;20421;-71
2022/07/30 01:31:17;;;;;;;18.50;17.70;;;21.90;31.10;;;;;;6220022;23;20377;-71
2022/07/30 01:33:46;;;;;;;17.97;16.93;;;22.00;30.40;;;;;;6220001;23;20387;-71
2022/07/30 01:36:15;;;;;;;18.50;17.60;;;22.00;30.90;;;;;;6219795;23;20525;-71
2022/07/30 01:38:43;;;;;;;17.93;17.23;;;22.10;30.10;;;;;;6247072;23;20374;-71
2022/07/30 01:41:11;;;;;;;17.73;16.93;;;22.10;30.00;;;;;;6219971;23;20580;-70
2022/07/30 01:43:38;;;;;;;18.27;17.23;;;21.90;30.00;;;;;;6220171;23;20740;-71
2022/07/30 01:46:06;;;;;;;16.63;16.03;;;21.90;30.30;;;;;;6219788;23;20436;-71
2022/07/30 01:48:35;;;;;;;18.93;17.70;;;21.70;31.30;;;;;;6219688;23;20821;-71
2022/07/30 01:51:04;;;;;;;18.40;17.60;;;21.80;31.40;;;;;;6219429;23;20401;-71
2022/07/30 01:53:32;;;;;;;18.73;17.83;;;21.50;31.40;;;;;;6219807;23;20382;-71
2022/07/30 01:56:00;;;;;;;18.37;17.47;;;21.30;32.90;;;;;;6219602;23;20386;-71
2022/07/30 01:58:34;;;;;;;18.87;17.60;;;21.30;32.50;;;;;;6246590;23;20420;-71
2022/07/30 02:00:59;;;;;;;18.77;17.83;;;21.10;33.70;;;;;;6246263;23;20398;-71
2022/07/30 02:03:26;;;;;;;18.13;17.40;;;21.20;33.70;;;;;;6219955;23;20418;-70
2022/07/30 02:06:02;;;;;;;18.50;17.70;;;21.10;34.00;;;;;;6219558;23;20485;-71
2022/07/30 02:08:40;;;;;;;18.27;17.40;;;21.00;34.60;;;;;;6219594;23;20468;-71
2022/07/30 02:12:27;;;;;;;19.23;18.37;;;21.20;33.60;;;;;;6219533;23;20378;-70
2022/07/30 02:14:04;;;;;;;19.80;18.93;;;20.90;34.90;;;;;;6246131;23;20397;-71
2022/07/30 02:16:35;;;;;;;19.27;18.37;;;20.60;35.70;;;;;;6219657;23;20406;-71
2022/07/30 02:19:09;;;;;;;19.60;18.67;;;20.50;36.70;;;;;;6219549;23;20432;-70
2022/07/30 02:21:42;;;;;;;19.57;18.50;;;20.40;36.70;;;;;;6219231;23;20366;-70
2022/07/30 02:24:13;;;;;;;19.33;18.20;;;20.60;36.10;;;;;;6219401;23;20458;-70
2022/07/30 02:26:41;;;;;;;18.40;17.60;;;20.80;35.10;;;;;;6219502;23;20428;-71
2022/07/30 02:29:08;;;;;;;19.63;18.73;;;20.60;36.70;;;;;;6219225;23;20505;-70
2022/07/30 02:31:35;;;;;;;19.13;18.20;;;20.50;36.20;;;;;;6219185;23;20378;-70
2022/07/30 02:34:05;;;;;;;20.30;19.17;;;20.40;36.80;;;;;;6219307;23;20422;-71
2022/07/30 02:36:34;;;;;;;20.13;19.03;;;20.40;36.80;;;;;;6219314;23;20710;-71
2022/07/30 02:39:02;;;;;;;18.80;18.00;;;20.30;37.20;;;;;;6219258;23;20727;-71
2022/07/30 02:41:30;;;;;;;18.83;18.00;;;20.50;36.40;;;;;;6218980;23;20706;-71
2022/07/30 02:43:59;;;;;;;18.83;18.03;;;20.50;35.70;;;;;;6218985;23;20465;-70
2022/07/30 02:46:26;;;;;;;19.30;18.20;;;20.40;35.50;;;;;;6219204;23;20465;-70
2022/07/30 02:48:53;;;;;;;18.00;17.30;;;20.30;35.70;;;;;;6218912;23;20426;-70
2022/07/30 02:51:20;;;;;;;18.40;17.63;;;20.20;35.30;;;;;;6218793;23;20386;-70
2022/07/30 02:53:48;;;;;;;18.47;17.67;;;20.10;35.40;;;;;;6219164;23;20414;-71
2022/07/30 02:56:16;;;;;;;18.20;17.40;;;20.10;34.80;;;;;;6218994;23;20400;-70
2022/07/30 02:58:43;;;;;;;18.33;17.43;;;20.10;34.80;;;;;;6219077;23;20383;-71
2022/07/30 03:01:12;;;;;;;19.00;17.90;;;20.00;35.10;;;;;;6218542;23;20398;-71
2022/07/30 03:03:41;;;;;;;18.37;17.63;;;20.00;35.10;;;;;;6218905;23;20386;-70
2022/07/30 03:06:08;;;;;;;18.13;17.43;;;20.20;33.70;;;;;;6218925;23;20409;-71
2022/07/30 03:08:35;;;;;;;19.10;18.17;;;20.20;33.70;;;;;;6218973;23;20450;-71
2022/07/30 03:11:02;;;;;;;18.83;17.90;;;20.40;33.60;;;;;;6245786;23;20458;-71
2022/07/30 03:13:28;;;;;;;18.63;17.83;;;20.70;31.70;;;;;;6245977;23;20720;-71
2022/07/30 03:15:57;;;;;;;19.50;18.40;;;20.30;32.50;;;;;;6218907;23;20374;-71
2022/07/30 03:18:26;;;;;;;18.30;17.40;;;20.40;32.70;;;;;;6218395;23;20387;-71
2022/07/30 03:20:55;;;;;;;18.90;18.00;;;20.70;31.60;;;;;;6218497;23;20702;-71
2022/07/30 03:23:22;;;;;;;17.90;17.10;;;20.90;30.70;;;;;;6218831;23;20386;-71
2022/07/30 03:25:55;;;;;;;18.40;17.40;;;21.00;30.00;;;;;;6219416;23;20692;-71
2022/07/30 03:28:22;;;;;;;18.43;17.37;;;21.20;29.60;;;;;;6218847;23;20472;-71
2022/07/30 03:30:49;;;;;;;18.57;17.57;;;21.30;28.50;;;;;;6218494;23;20409;-71
2022/07/30 03:33:15;;;;;;;17.70;17.00;;;21.30;28.80;;;;;;6245667;23;20374;-70
2022/07/30 03:35:43;;;;;;;18.23;17.43;;;21.40;27.70;;;;;;6218938;23;20937;-70
2022/07/30 03:38:13;;;;;;;17.37;16.47;;;21.40;27.30;;;;;;6218733;23;20394;-71
2022/07/30 03:40:41;;;;;;;18.67;17.77;;;21.10;27.10;;;;;;6218655;23;20390;-71
2022/07/30 03:43:09;;;;;;;18.00;17.23;;;20.90;28.20;;;;;;6218688;23;20386;-71
2022/07/30 03:45:36;;;;;;;17.90;17.00;;;21.00;28.40;;;;;;6219004;23;20387;-71
2022/07/30 03:48:04;;;;;;;18.23;17.30;;;20.70;28.30;;;;;;6218354;23;20449;-71
2022/07/30 03:50:30;;;;;;;17.43;16.63;;;20.80;28.80;;;;;;6243648;23;20435;-70
2022/07/30 03:52:56;;;;;;;17.47;16.67;;;21.00;28.10;;;;;;6218680;23;20375;-71
2022/07/30 03:55:22;;;;;;;16.97;16.37;;;21.20;27.80;;;;;;6219130;23;20959;-71
2022/07/30 03:57:48;;;;;;;19.17;18.10;;;21.20;27.40;;;;;;6218918;23;20379;-71
2022/07/30 04:00:14;;;;;;;17.50;16.80;;;21.40;27.60;;;;;;6217642;23;20404;-72
2022/07/30 04:02:45;;;;;;;17.50;16.70;;;21.20;28.00;;;;;;6218507;23;20569;-73
2022/07/30 04:05:12;;;;;;;19.13;18.20;;;21.30;27.20;;;;;;6219050;23;20862;-70
2022/07/30 04:07:41;;;;;;;18.20;17.40;;;21.40;27.10;;;;;;6218511;23;20460;-71
2022/07/30 04:10:08;;;;;;;17.50;16.70;;;21.50;27.10;;;;;;6219506;23;20378;-71
2022/07/30 04:12:34;;;;;;;18.70;17.90;;;21.60;27.70;;;;;;6218727;23;20431;-71
2022/07/30 04:15:00;;;;;;;18.63;17.73;;;21.50;27.70;;;;;;6218880;23;20378;-72
2022/07/30 04:17:40;;;;;;;18.60;17.60;;;21.60;28.30;;;;;;6245177;23;20707;-71
2022/07/30 04:20:11;;;;;;;18.77;17.73;;;21.50;28.40;;;;;;6218380;23;20139;-71
2022/07/30 04:22:39;;;;;;;18.50;17.80;;;21.50;28.70;;;;;;6218613;23;20378;-71
2022/07/30 04:25:08;;;;;;;17.80;16.93;;;21.40;28.70;;;;;;6245366;23;20374;-71
2022/07/30 04:27:35;;;;;;;18.60;17.90;;;21.40;29.40;;;;;;6218651;23;20385;-71
2022/07/30 04:30:03;;;;;;;19.80;18.73;;;21.50;28.80;;;;;;6217976;23;20378;-71
2022/07/30 04:32:29;;;;;;;19.00;18.10;;;21.40;29.10;;;;;;6218308;23;20378;-72
2022/07/30 04:34:55;;;;;;;19.50;18.40;;;21.40;29.10;;;;;;6218428;23;20378;-71
2022/07/30 04:37:24;;;;;;;18.80;18.00;;;20.90;30.00;;;;;;6218323;23;20386;-71
2022/07/30 04:39:53;;;;;;;19.10;18.30;;;21.00;30.70;;;;;;6218555;23;20382;-72
2022/07/30 04:42:20;;;;;;;19.40;18.50;;;21.20;30.00;;;;;;6218250;23;20378;-71
2022/07/30 04:44:45;;;;;;;19.30;18.30;;;21.10;29.40;;;;;;6218379;23;20435;-71
2022/07/30 04:47:11;;;;;;;20.20;18.80;;;21.10;30.20;;;;;;6245360;23;20405;-71
2022/07/30 04:49:39;;;;;;;18.80;18.00;;;21.20;29.60;;;;;;6243410;23;20624;-71
2022/07/30 04:52:06;;;;;;;19.40;18.40;;;21.30;29.60;;;;;;6218409;23;20699;-71
2022/07/30 04:54:42;;;;;;;18.27;17.57;;;21.40;29.40;;;;;;6218341;23;20385;-71
2022/07/30 04:57:12;;;;;;;19.50;18.33;;;21.10;29.80;;;;;;6218300;23;20682;-71
2022/07/30 04:59:39;;;;;;;18.23;17.50;;;21.20;29.30;;;;;;6218360;23;20406;-72
2022/07/30 05:02:06;;;;;;;19.87;18.93;;;21.30;29.00;;;;;;6218138;23;20381;-71
2022/07/30 05:04:33;;;;;;;19.40;18.50;;;21.20;29.30;;;;;;6218277;23;20390;-72
2022/07/30 05:07:01;;;;;;;18.83;17.93;;;21.30;29.30;;;;;;6218672;23;20409;-71
2022/07/30 05:09:28;;;;;;;20.73;19.83;;;21.30;28.70;;;;;;6218003;23;20417;-71
2022/07/30 05:11:54;;;;;;;18.60;17.90;;;21.30;28.60;;;;;;6246829;23;20371;-71
2022/07/30 05:14:21;;;;;;;19.93;18.70;;;20.60;30.40;;;;;;6220018;23;20382;-71
2022/07/30 05:16:48;;;;;;;20.03;19.03;;;20.40;30.30;;;;;;6220553;23;20382;-71
2022/07/30 05:19:18;;;;;;;19.20;18.40;;;20.30;30.10;;;;;;6219779;23;20736;-71
2022/07/30 05:21:44;;;;;;;20.10;19.07;;;20.60;30.50;;;;;;6220340;23;21081;-71
2022/07/30 05:24:11;;;;;;;19.50;18.60;;;20.90;29.90;;;;;;6246963;23;20465;-71
2022/07/30 05:26:37;;;;;;;18.10;17.40;;;21.10;30.00;;;;;;6247141;23;20370;-71
2022/07/30 05:29:03;;;;;;;18.73;17.90;;;21.20;29.00;;;;;;6246831;23;20901;-71
2022/07/30 05:31:29;;;;;;;19.60;18.70;;;21.30;28.30;;;;;;6246605;23;20851;-72
2022/07/30 05:33:55;;;;;;;19.20;18.27;;;21.40;27.50;;;;;;6219888;23;20469;-72
2022/07/30 05:36:21;;;;;;;18.90;17.90;;;21.50;27.30;;;;;;6219947;23;20638;-71
2022/07/30 05:38:52;;;;;;;19.10;18.20;;;21.60;26.90;;;;;;6220387;23;20205;-72
2022/07/30 05:41:18;;;;;;;18.13;17.33;;;21.40;28.20;;;;;;6218386;23;20516;-71
2022/07/30 05:43:43;;;;;;;18.60;17.80;;;21.40;26.80;;;;;;6218637;23;20858;-72
2022/07/30 05:46:17;;;;;;;18.97;17.97;;;21.10;27.30;;;;;;6218205;23;20163;-71
2022/07/30 05:48:43;;;;;;;18.57;17.77;;;21.20;28.40;;;;;;6218646;23;20229;-71
2022/07/30 05:51:20;;;;;;;;;;;;;;;;;;;;;
2022/07/30 05:53:46;;;;;;;19.10;18.10;;;21.10;28.30;;;;;;6245412;23;20250;-72
2022/07/30 05:56:12;;;;;;;18.83;17.93;;;21.20;28.90;;;;;;6219187;23;20430;-72
2022/07/30 05:58:38;;;;;;;19.77;18.57;;;21.40;28.40;;;;;;6219799;23;20205;-71
2022/07/30 06:01:07;;;;;;;20.13;19.23;;;21.60;27.50;;;;;;6246013;23;20859;-71
2022/07/30 06:03:33;;;;;;;19.17;18.30;;;21.70;26.10;;;;;;6219521;23;20148;-72
2022/07/30 06:06:01;;;;;;;18.43;17.53;;;21.70;25.30;;;;;;6219985;23;20378;-71
2022/07/30 06:08:29;;;;;;;18.63;17.60;;;21.50;25.20;;;;;;6219532;23;20426;-71
2022/07/30 06:14:08;;;;;;;19.00;18.10;;;21.70;24.60;;;;;;6164550;23;20385;-72
2022/07/30 06:16:34;;;;;;;19.47;18.50;;;21.70;25.30;;;;;;6219350;23;20453;-71
2022/07/30 06:18:59;;;;;;;20.00;19.10;;;21.80;25.20;;;;;;6219585;23;20159;-72
2022/07/30 06:21:25;;;;;;;19.13;18.30;;;21.90;24.70;;;;;;6219020;23;20205;-71
2022/07/30 06:23:51;;;;;;;17.93;16.83;;;21.80;24.30;;;;;;6219316;23;20190;-71
2022/07/30 06:26:17;;;;;;;19.13;18.30;;;21.90;25.00;;;;;;6219233;23;20214;-71
2022/07/30 06:28:45;;;;;;;18.97;18.07;;;21.90;24.00;;;;;;6219265;23;20180;-72
2022/07/30 06:31:29;;;;;;;18.00;17.20;;;21.70;24.40;;;;;;6218917;23;20530;-72
2022/07/30 06:33:55;;;;;;;19.33;18.13;;;21.80;24.50;;;;;;6244872;23;20381;-71
2022/07/30 06:36:21;;;;;;;19.20;18.20;;;21.90;24.20;;;;;;6219758;23;20383;-72
2022/07/30 06:38:46;;;;;;;19.70;18.80;;;22.00;24.20;;;;;;6219017;23;20160;-72
2022/07/30 06:41:19;;;;;;;18.00;17.20;;;22.10;24.70;;;;;;6218980;23;20169;-71
2022/07/30 06:44:30;;;;;;;;;;;;;;;;;;;;;
2022/07/30 06:47:18;;;;;;;18.83;17.93;;;22.30;24.30;;;;;;6245783;23;20461;-71
2022/07/30 06:49:43;;;;;;;19.73;18.23;;;22.20;23.90;;;;;;6246784;23;20730;-71
2022/07/30 06:52:09;;;;;;;20.00;18.70;;;22.30;23.70;;;;;;6219210;23;20387;-70
2022/07/30 06:54:35;;;;;;;17.90;17.03;;;22.30;23.20;;;;;;6219414;23;20175;-73
2022/07/30 06:57:01;;;;;;;18.20;17.40;;;22.20;23.20;;;;;;6219466;23;20236;-71
2022/07/30 06:59:27;;;;;;;18.60;17.50;;;22.30;23.20;;;;;;6218896;23;20494;-70
2022/07/30 07:01:53;;;;;;;17.97;17.07;;;22.30;23.90;;;;;;6220275;23;20607;-69
2022/07/30 07:04:19;;;;;;;19.53;18.73;;;22.30;23.40;;;;;;6221035;23;20378;-72
2022/07/30 07:06:44;;;;;;;19.60;18.70;;;22.40;23.30;;;;;;6219782;23;20196;-70
2022/07/30 07:09:10;;;;;;;19.53;18.43;;;22.40;23.30;;;;;;6219408;23;20495;-70
2022/07/30 07:11:36;;;;;;;19.30;18.17;;;22.40;23.30;;;;;;6219248;23;20151;-70
2022/07/30 07:14:08;;;;;;;18.57;17.50;;;22.50;24.00;;;;;;6219499;23;20155;-71
2022/07/30 07:16:33;;;;;;;18.60;17.50;;;22.50;23.40;;;;;;6246156;23;20421;-71
2022/07/30 07:18:59;;;;;;;18.50;17.60;;;22.50;23.60;;;;;;6245672;23;20385;-71
2022/07/30 07:21:25;;;;;;;19.47;18.67;;;22.50;23.40;;;;;;6219240;23;20156;-69
2022/07/30 07:23:51;;;;;;;20.33;19.27;;;22.50;22.80;;;;;;6219257;23;20162;-69
2022/07/30 07:26:17;;;;;;;21.30;20.10;;;22.60;22.40;;;;;;6219029;23;20465;-71
2022/07/30 07:28:42;;;;;;;18.83;17.93;;;22.50;22.80;;;;;;6218782;23;20266;-70
2022/07/30 07:31:12;;;;;;;18.93;18.03;;;22.60;23.20;;;;;;6219101;23;20230;-71
2022/07/30 07:33:39;;;;;;;20.60;19.60;;;22.60;22.30;;;;;;6245963;23;20222;-70
2022/07/30 07:36:05;;;;;;;18.80;18.00;;;22.60;21.40;;;;;;6218964;23;20386;-70
2022/07/30 07:38:45;;;;;;;18.30;17.40;;;22.60;21.60;;;;;;6219030;23;20862;-71
2022/07/30 07:41:17;;;;;;;19.37;18.40;;;22.60;21.70;;;;;;6244265;23;20842;-70
2022/07/30 07:43:43;;;;;;;18.27;17.23;;;22.80;22.00;;;;;;6218884;23;20477;-70
2022/07/30 07:46:11;;;;;;;18.37;17.43;;;22.70;22.00;;;;;;6245809;23;20598;-70
2022/07/30 07:48:38;;;;;;;18.63;17.70;;;22.70;21.50;;;;;;6244010;23;20736;-70
2022/07/30 07:51:09;;;;;;;19.43;18.47;;;22.80;20.90;;;;;;6218549;23;20393;-70
2022/07/30 07:53:35;;;;;;;17.83;16.83;;;22.70;20.70;;;;;;6218895;23;20385;-70
2022/07/30 07:56:21;;;;;;;;;;;;;;;;;;;;;
2022/07/30 07:58:47;;;;;;;17.93;17.00;;;22.80;20.90;;;;;;6245210;23;20663;-70
2022/07/30 08:01:13;;;;;;;17.30;16.07;;;22.80;19.80;;;;;;6218213;23;20410;-70
2022/07/30 08:03:39;;;;;;;17.97;16.90;;;22.80;20.70;;;;;;6218418;23;20159;-70
2022/07/30 08:06:07;;;;;;;17.10;16.30;;;22.80;20.60;;;;;;6242938;23;20154;-69
2022/07/30 08:08:35;;;;;;;17.07;16.10;;;22.90;20.20;;;;;;6218616;23;20236;-70
2022/07/30 08:11:01;;;;;;;17.43;16.43;;;22.90;20.50;;;;;;6218199;23;20385;-70
2022/07/30 08:13:30;;;;;;;16.63;15.83;;;22.90;19.40;;;;;;6218769;23;20465;-70
2022/07/30 08:16:02;;;;;;;17.13;16.03;;;23.00;19.30;;;;;;6218376;23;20459;-70
2022/07/30 08:18:28;;;;;;;17.20;16.30;;;23.00;19.40;;;;;;6218323;23;20830;-70
2022/07/30 08:20:54;;;;;;;16.73;15.93;;;23.10;19.60;;;;;;6218349;23;20378;-70
2022/07/30 08:23:23;;;;;;;16.97;16.17;;;23.10;18.80;;;;;;6218602;23;20480;-70
2022/07/30 08:25:48;;;;;;;16.87;16.07;;;23.20;19.50;;;;;;6218443;23;20386;-70
2022/07/30 08:28:14;;;;;;;17.23;16.13;;;23.30;19.10;;;;;;6218160;23;20475;-70
2022/07/30 08:30:40;;;;;;;17.50;16.40;;;23.30;19.10;;;;;;6218033;23;20152;-70
2022/07/30 08:33:06;;;;;;;16.77;15.60;;;23.30;18.60;;;;;;6218295;23;20714;-71
2022/07/30 08:35:31;;;;;;;17.20;16.03;;;23.20;19.50;;;;;;6245312;23;20147;-70
2022/07/30 08:38:03;;;;;;;16.53;15.83;;;23.60;18.20;;;;;;6218363;23;20147;-70
2022/07/30 08:40:33;;;;;;;16.63;15.83;;;23.60;18.20;;;;;;6245177;23;20159;-70
2022/07/30 08:43:14;;;;;;;18.10;16.80;;;23.50;18.10;;;;;;6218185;23;20386;-70
2022/07/30 08:45:41;;;;;;;16.77;15.97;;;23.50;16.90;;;;;;6246110;23;20880;-70
2022/07/30 08:48:10;;;;;;;17.83;17.00;;;23.50;17.60;;;;;;6220666;23;20500;-70
2022/07/30 08:50:35;;;;;;;17.10;16.20;;;23.60;16.90;;;;;;6219928;23;20378;-70
2022/07/30 08:53:02;;;;;;;16.67;15.87;;;23.50;16.70;;;;;;6220117;23;20701;-71
2022/07/30 08:55:28;;;;;;;16.77;16.00;;;23.50;17.60;;;;;;6220016;23;20163;-70
2022/07/30 08:57:54;;;;;;;16.67;15.87;;;23.60;17.50;;;;;;6247426;23;20374;-70
2022/07/30 09:00:20;;;;;;;18.87;17.53;;;23.60;16.80;;;;;;6246355;23;20389;-70
2022/07/30 09:02:46;;;;;;;16.67;15.80;;;23.50;16.80;;;;;;6220070;23;20221;-70
2022/07/30 09:05:13;;;;;;;16.30;15.60;;;23.50;17.20;;;;;;6247209;23;20385;-70
2022/07/30 09:07:39;;;;;;;16.87;15.93;;;23.60;16.20;;;;;;6219569;23;20467;-70
2022/07/30 09:10:10;;;;;;;17.23;16.43;;;23.60;16.80;;;;;;6219470;23;20698;-70
2022/07/30 09:12:45;;;;;;;16.00;15.20;;;23.50;17.30;;;;;;6219928;23;20410;-70
2022/07/30 09:15:15;;;;;;;16.30;15.60;;;23.50;17.10;;;;;;6244970;23;20382;-70
2022/07/30 09:18:01;;;;;;;17.60;16.70;;;23.50;17.40;;;;;;6220249;23;20371;-70
2022/07/30 09:20:30;;;;;;;17.47;16.37;;;23.50;16.50;;;;;;6219665;23;20367;-70
2022/07/30 09:23:01;;;;;;;16.40;15.60;;;23.70;17.10;;;;;;6219812;23;20371;-70
2022/07/30 09:25:33;;;;;;;16.40;15.70;;;23.70;16.60;;;;;;6219649;23;20887;-70
2022/07/30 09:27:59;;;;;;;16.23;15.43;;;23.80;16.50;;;;;;6245264;23;20480;-70
2022/07/30 09:30:25;;;;;;;15.50;14.90;;;23.80;16.80;;;;;;6219188;23;20847;-70
2022/07/30 09:32:56;;;;;;;16.77;15.70;;;23.80;16.00;;;;;;6219595;23;20382;-70
2022/07/30 09:35:22;;;;;;;16.13;15.43;;;23.80;16.70;;;;;;6219629;23;20694;-70
2022/07/30 09:37:58;;;;;;;16.07;15.37;;;24.00;16.20;;;;;;6219665;23;20379;-70
2022/07/30 09:40:24;;;;;;;14.97;14.37;;;24.20;15.60;;;;;;6219684;23;20377;-70
2022/07/30 09:43:10;;;;;;;15.03;14.43;;;24.20;15.30;;;;;;6246574;23;20374;-70
2022/07/30 09:45:56;;;;;;;15.33;14.33;;;24.60;14.60;;;;;;6246012;23;20469;-71
2022/07/30 09:48:26;;;;;;;14.83;14.23;;;24.60;15.20;;;;;;6244985;23;20513;-70
2022/07/30 09:51:01;;;;;;;15.13;14.47;;;24.70;15.00;;;;;;6219542;23;20379;-70
2022/07/30 09:53:27;;;;;;;16.57;15.43;;;24.60;15.30;;;;;;6219513;23;20377;-70
2022/07/30 09:56:44;;;;;;;15.70;15.00;;;24.90;13.90;;;;;;6219612;23;20367;-70
2022/07/30 09:59:31;;;;;;;15.40;14.50;;;25.30;12.80;;;;;;6201341;23;20735;-70
2022/07/30 10:01:57;;;;;;;16.00;14.87;;;25.30;13.30;;;;;;6219215;23;20378;-70
2022/07/30 10:04:29;;;;;;;15.13;14.03;;;25.40;12.70;;;;;;6246889;23;20378;-70
2022/07/30 10:06:56;;;;;;;15.40;14.80;;;25.60;12.60;;;;;;6219506;23;20472;-70
2022/07/30 10:09:28;;;;;;;14.60;14.10;;;25.60;12.90;;;;;;6245980;23;20418;-70
2022/07/30 10:11:56;;;;;;;14.90;14.40;;;25.80;12.10;;;;;;6244465;23;20383;-70
2022/07/30 10:14:27;;;;;;;15.30;14.60;;;26.00;11.10;;;;;;6219229;23;20461;-70
2022/07/30 10:16:53;;;;;;;15.80;14.90;;;25.80;11.50;;;;;;6219343;23;20379;-70
2022/07/30 10:19:20;;;;;;;14.60;14.10;;;25.70;11.90;;;;;;6219320;23;20373;-70
2022/07/30 10:21:47;;;;;;;13.97;13.30;;;25.60;12.00;;;;;;6219240;23;20147;-70
2022/07/30 10:24:16;;;;;;;15.73;14.97;;;25.80;12.30;;;;;;6219050;23;20524;-70
2022/07/30 10:26:43;;;;;;;14.73;14.00;;;25.70;11.50;;;;;;6219381;23;20386;-70
2022/07/30 10:29:08;;;;;;;14.47;13.53;;;25.60;12.50;;;;;;6219106;23;20422;-70
2022/07/30 10:31:34;;;;;;;14.70;13.60;;;25.70;11.30;;;;;;6219705;23;20389;-70
2022/07/30 10:34:00;;;;;;;14.93;14.40;;;25.80;11.30;;;;;;6219264;23;20152;-70
2022/07/30 10:36:28;;;;;;;15.10;14.50;;;25.80;11.70;;;;;;6219554;23;20151;-70
2022/07/30 10:38:55;;;;;;;14.63;14.03;;;25.70;11.90;;;;;;6218424;23;20474;-70
2022/07/30 10:41:26;;;;;;;15.07;13.97;;;25.60;11.90;;;;;;6218942;23;20374;-70
2022/07/30 10:44:37;;;;;;;15.10;14.10;;;25.50;11.90;;;;;;6244224;23;20386;-70
2022/07/30 10:47:10;;;;;;;14.93;14.27;;;25.40;11.90;;;;;;6219086;23;20386;-70
2022/07/30 10:49:36;;;;;;;15.90;15.20;;;25.50;12.30;;;;;;6218985;23;20564;-70
2022/07/30 10:52:02;;;;;;;14.33;13.83;;;25.60;11.50;;;;;;6218576;23;20386;-70
2022/07/30 10:54:37;;;;;;;14.37;13.67;;;26.20;10.30;;;;;;6218459;23;20509;-70
2022/07/30 10:57:04;;;;;;;15.00;14.30;;;26.20;9.80;;;;;;6243543;23;20389;-70
2022/07/30 10:59:49;;;;;;;15.03;14.33;;;25.90;10.50;;;;;;6243385;23;20879;-70
2022/07/30 11:02:16;;;;;;;14.93;14.30;;;25.90;10.80;;;;;;6218409;23;20386;-70
2022/07/30 11:04:42;;;;;;;15.23;14.53;;;25.70;11.00;;;;;;6218376;23;20744;-70
2022/07/30 11:07:21;;;;;;;14.27;13.77;;;25.60;11.40;;;;;;6245379;23;20374;-70
2022/07/30 11:09:47;;;;;;;14.90;14.13;;;25.40;11.00;;;;;;6243500;23;20426;-70
2022/07/30 11:12:15;;;;;;;15.00;14.30;;;25.30;11.40;;;;;;6245362;23;20381;-70
2022/07/30 11:14:47;;;;;;;14.23;13.63;;;25.30;11.30;;;;;;6243846;23;20397;-70
2022/07/30 11:17:16;;;;;;;14.57;13.90;;;25.30;11.10;;;;;;6243925;23;20377;-70
2022/07/30 11:20:01;;;;;;;15.57;14.87;;;25.30;11.10;;;;;;6218282;23;20394;-70
2022/07/30 11:22:38;;;;;;;14.60;13.93;;;25.40;11.10;;;;;;6243321;23;20989;-70
2022/07/30 11:25:09;;;;;;;14.40;13.70;;;25.40;11.10;;;;;;6217758;23;20397;-70
2022/07/30 11:27:45;;;;;;;15.73;15.10;;;25.30;11.20;;;;;;6218022;23;20696;-70
2022/07/30 11:30:19;;;;;;;15.13;14.40;;;25.20;11.10;;;;;;6217611;23;20397;-70
2022/07/30 11:32:50;;;;;;;15.13;14.63;;;25.20;10.90;;;;;;6243627;23;20384;-70
2022/07/30 11:35:22;;;;;;;13.83;13.23;;;25.20;11.10;;;;;;6244137;23;20366;-70
2022/07/30 11:38:14;;;;;;;14.47;13.57;;;25.20;10.90;;;;;;6243009;23;20465;-70
2022/07/30 11:40:47;;;;;;;13.70;13.17;;;25.30;11.30;;;;;;6217597;23;20370;-70
2022/07/30 11:43:25;;;;;;;15.50;14.90;;;25.30;11.70;;;;;;6243134;23;20779;-70
2022/07/30 11:46:08;;;;;;;14.50;13.80;;;25.30;11.40;;;;;;6244756;23;20358;-70
2022/07/30 11:48:35;;;;;;;15.10;14.43;;;25.30;11.60;;;;;;6218593;23;20430;-70
2022/07/30 11:51:02;;;;;;;15.10;14.27;;;25.70;11.30;;;;;;6218997;23;20383;-73
2022/07/30 11:53:28;;;;;;;14.00;13.50;;;26.00;10.20;;;;;;6219292;23;20867;-73
2022/07/30 11:55:59;;;;;;;14.70;13.83;;;26.00;10.40;;;;;;6245286;23;20419;-72
2022/07/30 11:58:28;;;;;;;14.13;13.63;;;26.00;10.00;;;;;;6218757;23;20619;-71
2022/07/30 12:01:00;;;;;;;13.87;13.30;;;26.10;10.50;;;;;;6243291;23;20410;-72
2022/07/30 12:03:27;;;;;;;14.00;13.40;;;25.80;10.70;;;;;;6218809;23;20378;-72
2022/07/30 12:05:54;;;;;;;15.70;14.60;;;25.70;11.10;;;;;;6217804;23;20456;-71
2022/07/30 12:08:20;;;;;;;14.73;13.93;;;25.70;11.20;;;;;;6217374;23;20757;-71
2022/07/30 12:11:04;;;;;;;14.63;13.90;;;25.70;11.00;;;;;;6217838;23;20764;-70
2022/07/30 12:13:30;;;;;;;13.97;13.47;;;25.60;10.80;;;;;;6218247;23;20378;-70
2022/07/30 12:15:56;;;;;;;14.00;13.50;;;25.60;10.80;;;;;;6218282;23;20382;-71
2022/07/30 12:18:27;;;;;;;13.97;13.47;;;25.60;10.90;;;;;;6218287;23;20182;-70
2022/07/30 12:21:01;;;;;;;13.60;13.00;;;25.50;10.30;;;;;;6217121;23;20178;-71
2022/07/30 12:23:29;;;;;;;13.97;13.27;;;25.80;10.20;;;;;;6218498;23;20385;-71
2022/07/30 12:25:56;;;;;;;13.77;12.97;;;25.80;9.80;;;;;;6218653;23;20432;-70
2022/07/30 12:28:27;;;;;;;13.73;13.07;;;26.10;9.70;;;;;;6245288;23;20426;-69
2022/07/30 12:31:05;;;;;;;13.70;13.20;;;26.00;8.60;;;;;;6244944;23;20393;-68
2022/07/30 12:33:31;;;;;;;13.07;12.53;;;26.10;8.80;;;;;;6218303;23;20374;-73
2022/07/30 12:35:59;;;;;;;14.83;14.23;;;26.60;7.90;;;;;;6210909;23;20392;-73
2022/07/30 12:38:27;;;;;;;13.30;12.60;;;26.80;7.60;;;;;;6217823;23;20704;-73
2022/07/30 12:40:57;;;;;;;14.43;13.50;;;26.60;8.40;;;;;;6218476;23;20393;-71
2022/07/30 12:43:55;;;;;;;14.07;13.57;;;26.40;8.30;;;;;;6217749;23;20472;-71